Mt Bomar Mars — 9HCM9 — position and weather

sailwx.info

Track history (hours):
 
Tides and Currents Weather Stations Pressure Air Temp Water Temp Dewpoint Dewpoint Depression Visibility Wind Speed Wind Dir Waves Ship Positions

Mt Bomar Mars

Last reported at 2015-Sep-01 19:26 UTC. Time now 2015-Sep-02 04:29 UTC.
Position N 41°22' E 003°11'.

Length 107 m; draft 6.5 m.

Type: Ship. MMSI: 256784000.

Date/timePositionNaut miles runAvg speedWind from/ knotsBaromVisibWave heightAir tempDewpointWater temp
2015-Sep-01 19:26N 41°22' E 003°11'910.4
2015-Sep-01 18:33N 41°15' E 003°04'1010.4
2015-Sep-01 17:33N 41°07' E 002°55'1110.4
2015-Sep-01 16:33N 40°58' E 002°46'1010.5
2015-Sep-01 15:33N 40°50' E 002°38'1010.4
2015-Sep-01 14:33N 40°42' E 002°30'1110.7
2015-Sep-01 13:33N 40°34' E 002°21'1110.7
2015-Sep-01 12:33N 40°25' E 002°12'1110.8
2015-Sep-01 11:33N 40°17' E 002°03'1111.0
2015-Sep-01 10:33N 40°08' E 001°54'1110.8
2015-Sep-01 09:33N 39°59' E 001°46'1110.5
2015-Sep-01 08:33N 39°51' E 001°38'1110.6
2015-Sep-01 07:31N 39°42' E 001°29'1010.4
2015-Sep-01 06:32N 39°34' E 001°20'1110.9
2015-Sep-01 05:33N 39°26' E 001°12'1110.8
2015-Sep-01 04:30N 39°17' E 001°02'10911.0
2015-Aug-31 18:33N 37°48' W 000°18'1110.8
2015-Aug-31 17:33N 37°39' W 000°26'1110.6
2015-Aug-31 16:33N 37°31' W 000°34'1110.8
2015-Aug-31 15:33N 37°24' W 000°44'1211.1
2015-Aug-31 14:28N 37°16' W 000°55'3210.8
2015-Aug-31 11:28N 36°54' W 001°26'1210.7
2015-Aug-31 10:21N 36°46' W 001°37'3510.9
2015-Aug-31 07:07N 36°23' W 002°10'374 9.4
2015-Aug-29 15:33N 37°29' W 009°50'1211.6
2015-Aug-29 14:33N 37°41' W 009°54'1111.2
2015-Aug-29 13:33N 37°51' W 009°58'1211.5
2015-Aug-29 12:33N 38°02' W 010°01'1211.8
2015-Aug-29 11:33N 38°14' W 010°04'1212.2
2015-Aug-29 10:33N 38°26' W 010°07'1312.7
2015-Aug-29 09:33N 38°38' W 010°11'1212.3
2015-Aug-29 08:33N 38°51' W 010°11'1212.2
2015-Aug-29 07:33N 39°03' W 010°11'1212.0
2015-Aug-29 06:33N 39°15' W 010°11'1512.1
2015-Aug-29 05:17N 39°30' W 010°12'  
2015-Aug-25 20:33N 49°40' W 000°41'1211.7
2015-Aug-25 19:33N 49°35' W 000°25'1111.3
2015-Aug-25 18:33N 49°30' W 000°09'1110.9
2015-Aug-25 17:33N 49°26' E 000°07'1010.2
2015-Aug-25 16:34N 49°26' E 000°22'6 6.0
2015-Aug-25 15:32N 49°29' E 000°31'0 0.0
2015-Aug-24 14:23N 49°29' E 000°31'2 2.2
2015-Aug-24 13:33N 49°28' E 000°28'1212.0
2015-Aug-24 12:33N 49°26' E 000°10'1010.5
2015-Aug-24 11:33N 49°29' W 000°06'0 0.2
2015-Aug-24 10:30N 49°29' W 000°06'0 0.0
2015-Aug-24 09:33N 49°29' W 000°06'0 0.0
2015-Aug-24 08:33N 49°29' W 000°06'6 6.0
2015-Aug-24 07:33N 49°31' W 000°14'1010.3
2015-Aug-24 06:34N 49°36' W 000°29'1110.6
2015-Aug-24 05:33N 49°40' W 000°43'217 9.9
2015-Aug-23 07:33N 48°11' W 005°44'2311.5
2015-Aug-23 05:33N 47°53' W 005°21'6711.1
2015-Aug-22 23:29N 47°18' W 003°57'1011.0
2015-Aug-22 22:33N 47°13' W 003°44'1211.0
2015-Aug-22 21:30N 47°07' W 003°28'  
Track history (hours):
 
Tides and Currents Weather Stations Pressure Air Temp Water Temp Dewpoint Dewpoint Depression Visibility Wind Speed Wind Dir Waves Ship Positions

Mt Bomar Mars

Last reported at 2015-Sep-01 19:26 UTC. Time now 2015-Sep-02 04:29 UTC.
Position N 41°22' E 003°11'.

Length 107 m; draft 6.5 m.

Type: Ship. MMSI: 256784000.

Date/timePositionNaut miles runAvg speedWind from/ knotsBaromVisibWave heightAir tempDewpointWater temp
2015-Sep-01 19:26N 41°22' E 003°11'910.4
2015-Sep-01 18:33N 41°15' E 003°04'1010.4
2015-Sep-01 17:33N 41°07' E 002°55'1110.4
2015-Sep-01 16:33N 40°58' E 002°46'1010.5
2015-Sep-01 15:33N 40°50' E 002°38'1010.4
2015-Sep-01 14:33N 40°42' E 002°30'1110.7
2015-Sep-01 13:33N 40°34' E 002°21'1110.7
2015-Sep-01 12:33N 40°25' E 002°12'1110.8
2015-Sep-01 11:33N 40°17' E 002°03'1111.0
2015-Sep-01 10:33N 40°08' E 001°54'1110.8
2015-Sep-01 09:33N 39°59' E 001°46'1110.5
2015-Sep-01 08:33N 39°51' E 001°38'1110.6
2015-Sep-01 07:31N 39°42' E 001°29'1010.4
2015-Sep-01 06:32N 39°34' E 001°20'1110.9
2015-Sep-01 05:33N 39°26' E 001°12'1110.8
2015-Sep-01 04:30N 39°17' E 001°02'10911.0
2015-Aug-31 18:33N 37°48' W 000°18'1110.8
2015-Aug-31 17:33N 37°39' W 000°26'1110.6
2015-Aug-31 16:33N 37°31' W 000°34'1110.8
2015-Aug-31 15:33N 37°24' W 000°44'1211.1
2015-Aug-31 14:28N 37°16' W 000°55'3210.8
2015-Aug-31 11:28N 36°54' W 001°26'1210.7
2015-Aug-31 10:21N 36°46' W 001°37'3510.9
2015-Aug-31 07:07N 36°23' W 002°10'374 9.4
2015-Aug-29 15:33N 37°29' W 009°50'1211.6
2015-Aug-29 14:33N 37°41' W 009°54'1111.2
2015-Aug-29 13:33N 37°51' W 009°58'1211.5
2015-Aug-29 12:33N 38°02' W 010°01'1211.8
2015-Aug-29 11:33N 38°14' W 010°04'1212.2
2015-Aug-29 10:33N 38°26' W 010°07'1312.7
2015-Aug-29 09:33N 38°38' W 010°11'1212.3
2015-Aug-29 08:33N 38°51' W 010°11'1212.2
2015-Aug-29 07:33N 39°03' W 010°11'1212.0
2015-Aug-29 06:33N 39°15' W 010°11'1512.1
2015-Aug-29 05:17N 39°30' W 010°12'  
2015-Aug-25 20:33N 49°40' W 000°41'1211.7
2015-Aug-25 19:33N 49°35' W 000°25'1111.3
2015-Aug-25 18:33N 49°30' W 000°09'1110.9
2015-Aug-25 17:33N 49°26' E 000°07'1010.2
2015-Aug-25 16:34N 49°26' E 000°22'6 6.0
2015-Aug-25 15:32N 49°29' E 000°31'0 0.0
2015-Aug-24 14:23N 49°29' E 000°31'2 2.2
2015-Aug-24 13:33N 49°28' E 000°28'1212.0
2015-Aug-24 12:33N 49°26' E 000°10'1010.5
2015-Aug-24 11:33N 49°29' W 000°06'0 0.2
2015-Aug-24 10:30N 49°29' W 000°06'0 0.0
2015-Aug-24 09:33N 49°29' W 000°06'0 0.0
2015-Aug-24 08:33N 49°29' W 000°06'6 6.0
2015-Aug-24 07:33N 49°31' W 000°14'1010.3
2015-Aug-24 06:34N 49°36' W 000°29'1110.6
2015-Aug-24 05:33N 49°40' W 000°43'217 9.9
2015-Aug-23 07:33N 48°11' W 005°44'2311.5
2015-Aug-23 05:33N 47°53' W 005°21'6711.1
2015-Aug-22 23:29N 47°18' W 003°57'1011.0
2015-Aug-22 22:33N 47°13' W 003°44'1211.0
2015-Aug-22 21:30N 47°07' W 003°28'  

Dump ship's entire track history